sensor_id;sensor_type;location;lat;lon;timestamp;pressure;altitude;pressure_sealevel;temperature;humidity
71621;BME280;59471;42.254;23.102;2023-04-08T00:00:34;95969.03;;;6.04;65.25
71621;BME280;59471;42.254;23.102;2023-04-08T00:03:03;95954.78;;;6.08;65.15
71621;BME280;59471;42.254;23.102;2023-04-08T00:05:29;95959.91;;;6.18;65.17
71621;BME280;59471;42.254;23.102;2023-04-08T00:07:54;95961.06;;;6.15;64.28
71621;BME280;59471;42.254;23.102;2023-04-08T00:10:20;95970.19;;;6.19;65.14
71621;BME280;59471;42.254;23.102;2023-04-08T00:12:47;95967.72;;;6.00;65.04
71621;BME280;59471;42.254;23.102;2023-04-08T00:15:12;95967.97;;;5.69;66.99
71621;BME280;59471;42.254;23.102;2023-04-08T00:17:38;95971.13;;;5.63;66.49
71621;BME280;59471;42.254;23.102;2023-04-08T00:20:04;95971.72;;;5.57;67.06
71621;BME280;59471;42.254;23.102;2023-04-08T00:22:30;95968.69;;;5.62;67.51
71621;BME280;59471;42.254;23.102;2023-04-08T00:24:56;95968.53;;;5.91;67.16
71621;BME280;59471;42.254;23.102;2023-04-08T00:27:22;95958.16;;;5.91;66.83
71621;BME280;59471;42.254;23.102;2023-04-08T00:29:50;95960.94;;;5.79;67.80
71621;BME280;59471;42.254;23.102;2023-04-08T00:32:15;95957.69;;;5.77;67.20
71621;BME280;59471;42.254;23.102;2023-04-08T00:34:41;95955.44;;;5.82;67.99
71621;BME280;59471;42.254;23.102;2023-04-08T00:37:07;95956.53;;;5.90;67.13
71621;BME280;59471;42.254;23.102;2023-04-08T00:39:33;95956.81;;;5.87;67.59
71621;BME280;59471;42.254;23.102;2023-04-08T00:41:59;95957.75;;;5.86;67.45
71621;BME280;59471;42.254;23.102;2023-04-08T00:44:26;95964.78;;;5.75;67.99
71621;BME280;59471;42.254;23.102;2023-04-08T00:46:52;95955.25;;;5.66;67.71
71621;BME280;59471;42.254;23.102;2023-04-08T00:49:18;95969.78;;;5.59;68.89
71621;BME280;59471;42.254;23.102;2023-04-08T00:51:43;95959.00;;;5.81;67.83
71621;BME280;59471;42.254;23.102;2023-04-08T00:54:09;95962.81;;;5.97;67.66
71621;BME280;59471;42.254;23.102;2023-04-08T00:56:35;95958.34;;;5.79;68.89
71621;BME280;59471;42.254;23.102;2023-04-08T00:59:02;95962.38;;;5.64;69.38
71621;BME280;59471;42.254;23.102;2023-04-08T01:01:36;95965.44;;;5.50;69.71
71621;BME280;59471;42.254;23.102;2023-04-08T01:06:48;95968.69;;;5.62;69.01
71621;BME280;59471;42.254;23.102;2023-04-08T01:09:20;95978.56;;;5.58;68.80
71621;BME280;59471;42.254;23.102;2023-04-08T01:11:49;95984.56;;;5.58;69.63
71621;BME280;59471;42.254;23.102;2023-04-08T01:14:19;95981.41;;;5.65;69.89
71621;BME280;59471;42.254;23.102;2023-04-08T01:16:46;95986.44;;;5.66;70.05
71621;BME280;59471;42.254;23.102;2023-04-08T01:19:21;95982.97;;;5.75;68.89
71621;BME280;59471;42.254;23.102;2023-04-08T01:21:52;95985.69;;;5.84;68.70
71621;BME280;59471;42.254;23.102;2023-04-08T01:24:25;95986.72;;;5.63;69.63
71621;BME280;59471;42.254;23.102;2023-04-08T01:26:54;95992.06;;;5.24;70.66
71621;BME280;59471;42.254;23.102;2023-04-08T01:29:21;95992.34;;;5.11;71.42
71621;BME280;59471;42.254;23.102;2023-04-08T01:31:49;95995.13;;;4.91;72.19
71621;BME280;59471;42.254;23.102;2023-04-08T01:34:16;95998.13;;;4.86;72.92
71621;BME280;59471;42.254;23.102;2023-04-08T01:36:44;96008.28;;;5.26;71.90
71621;BME280;59471;42.254;23.102;2023-04-08T01:39:11;96007.53;;;5.53;71.03
71621;BME280;59471;42.254;23.102;2023-04-08T01:41:38;96018.72;;;5.64;70.38
71621;BME280;59471;42.254;23.102;2023-04-08T01:44:05;96013.81;;;5.61;70.17
71621;BME280;59471;42.254;23.102;2023-04-08T01:46:31;96019.00;;;5.61;70.82
71621;BME280;59471;42.254;23.102;2023-04-08T01:48:58;96016.47;;;5.78;70.33
71621;BME280;59471;42.254;23.102;2023-04-08T01:51:25;96014.06;;;5.67;71.30
71621;BME280;59471;42.254;23.102;2023-04-08T01:53:52;96014.19;;;5.28;72.28
71621;BME280;59471;42.254;23.102;2023-04-08T01:56:20;96012.03;;;4.95;73.30
71621;BME280;59471;42.254;23.102;2023-04-08T01:58:51;96004.69;;;4.80;74.57
71621;BME280;59471;42.254;23.102;2023-04-08T02:01:20;96016.66;;;5.01;74.12
71621;BME280;59471;42.254;23.102;2023-04-08T02:03:47;96004.63;;;5.19;73.29
71621;BME280;59471;42.254;23.102;2023-04-08T02:06:16;96013.38;;;5.28;73.20
71621;BME280;59471;42.254;23.102;2023-04-08T02:08:42;96010.06;;;5.35;73.11
71621;BME280;59471;42.254;23.102;2023-04-08T02:11:07;96017.41;;;5.50;72.04
71621;BME280;59471;42.254;23.102;2023-04-08T02:13:33;96018.19;;;5.60;72.49
71621;BME280;59471;42.254;23.102;2023-04-08T02:16:07;96024.31;;;5.12;73.90
71621;BME280;59471;42.254;23.102;2023-04-08T02:18:36;96028.97;;;5.08;73.06
71621;BME280;59471;42.254;23.102;2023-04-08T02:21:06;96021.88;;;5.01;73.09
71621;BME280;59471;42.254;23.102;2023-04-08T02:23:37;96018.56;;;5.18;72.83
71621;BME280;59471;42.254;23.102;2023-04-08T02:26:07;96025.16;;;5.03;73.63
71621;BME280;59471;42.254;23.102;2023-04-08T02:28:38;96027.59;;;4.95;73.49
71621;BME280;59471;42.254;23.102;2023-04-08T02:31:09;96036.91;;;4.68;74.82
71621;BME280;59471;42.254;23.102;2023-04-08T02:33:40;96028.44;;;5.05;74.23
71621;BME280;59471;42.254;23.102;2023-04-08T02:36:07;96027.31;;;5.07;74.93
71621;BME280;59471;42.254;23.102;2023-04-08T02:38:33;96022.53;;;5.22;73.77
71621;BME280;59471;42.254;23.102;2023-04-08T02:40:58;96025.94;;;5.23;73.70
71621;BME280;59471;42.254;23.102;2023-04-08T02:43:24;96022.41;;;5.14;73.85
71621;BME280;59471;42.254;23.102;2023-04-08T02:46:00;96015.72;;;5.11;73.57
71621;BME280;59471;42.254;23.102;2023-04-08T02:48:28;96017.88;;;5.16;73.69
71621;BME280;59471;42.254;23.102;2023-04-08T02:50:54;96014.34;;;4.98;73.95
71621;BME280;59471;42.254;23.102;2023-04-08T02:53:21;96011.38;;;4.93;74.20
71621;BME280;59471;42.254;23.102;2023-04-08T02:55:47;96007.13;;;4.92;74.81
71621;BME280;59471;42.254;23.102;2023-04-08T02:58:12;96001.94;;;5.11;73.54
71621;BME280;59471;42.254;23.102;2023-04-08T03:00:38;96002.59;;;5.13;73.13
71621;BME280;59471;42.254;23.102;2023-04-08T03:03:04;95993.97;;;5.22;74.13
71621;BME280;59471;42.254;23.102;2023-04-08T03:05:31;95992.34;;;5.21;74.32
71621;BME280;59471;42.254;23.102;2023-04-08T03:07:57;95988.56;;;4.96;73.74
71621;BME280;59471;42.254;23.102;2023-04-08T03:10:23;95992.41;;;4.82;74.17
71621;BME280;59471;42.254;23.102;2023-04-08T03:12:48;95982.97;;;4.81;75.02
71621;BME280;59471;42.254;23.102;2023-04-08T03:15:14;95990.72;;;5.01;73.89
71621;BME280;59471;42.254;23.102;2023-04-08T03:17:39;95986.91;;;5.05;73.20
71621;BME280;59471;42.254;23.102;2023-04-08T03:20:05;95991.25;;;5.14;73.92
71621;BME280;59471;42.254;23.102;2023-04-08T03:22:32;95990.69;;;5.30;73.44
71621;BME280;59471;42.254;23.102;2023-04-08T03:24:58;95992.56;;;5.38;72.53
71621;BME280;59471;42.254;23.102;2023-04-08T03:27:23;95999.41;;;5.29;73.02
71621;BME280;59471;42.254;23.102;2023-04-08T03:29:49;96000.13;;;5.21;73.31
71621;BME280;59471;42.254;23.102;2023-04-08T03:32:15;95999.34;;;5.11;73.51
71621;BME280;59471;42.254;23.102;2023-04-08T03:34:41;96001.28;;;4.90;72.66
71621;BME280;59471;42.254;23.102;2023-04-08T03:37:06;96003.06;;;4.79;73.86
71621;BME280;59471;42.254;23.102;2023-04-08T03:39:32;96003.34;;;4.76;73.49
71621;BME280;59471;42.254;23.102;2023-04-08T03:41:58;96006.59;;;4.88;74.04
71621;BME280;59471;42.254;23.102;2023-04-08T03:44:25;96007.69;;;5.05;73.75
71621;BME280;59471;42.254;23.102;2023-04-08T03:46:51;96006.84;;;5.04;73.62
71621;BME280;59471;42.254;23.102;2023-04-08T03:49:17;96009.53;;;5.22;72.62
71621;BME280;59471;42.254;23.102;2023-04-08T03:51:42;96007.63;;;5.24;72.83
71621;BME280;59471;42.254;23.102;2023-04-08T03:54:08;96011.72;;;5.37;72.98
71621;BME280;59471;42.254;23.102;2023-04-08T03:56:34;96015.81;;;5.29;72.38
71621;BME280;59471;42.254;23.102;2023-04-08T03:58:59;96016.53;;;5.12;73.21
71621;BME280;59471;42.254;23.102;2023-04-08T04:01:25;96025.19;;;4.74;74.61
71621;BME280;59471;42.254;23.102;2023-04-08T04:03:50;96024.38;;;4.73;74.29
71621;BME280;59471;42.254;23.102;2023-04-08T04:06:16;96012.59;;;4.79;72.74
71621;BME280;59471;42.254;23.102;2023-04-08T04:08:41;96019.41;;;4.99;73.58
71621;BME280;59471;42.254;23.102;2023-04-08T04:11:07;96020.75;;;5.13;73.30
71621;BME280;59471;42.254;23.102;2023-04-08T04:13:32;96015.69;;;5.21;72.29
71621;BME280;59471;42.254;23.102;2023-04-08T04:15:58;96010.09;;;5.16;73.63
71621;BME280;59471;42.254;23.102;2023-04-08T04:18:23;96006.00;;;5.23;73.53
71621;BME280;59471;42.254;23.102;2023-04-08T04:20:49;95996.41;;;5.33;72.94
71621;BME280;59471;42.254;23.102;2023-04-08T04:23:14;96002.16;;;5.27;73.24
71621;BME280;59471;42.254;23.102;2023-04-08T04:25:41;96009.31;;;5.06;73.21
71621;BME280;59471;42.254;23.102;2023-04-08T04:28:07;96010.13;;;4.97;73.39
71621;BME280;59471;42.254;23.102;2023-04-08T04:30:36;96012.03;;;4.95;72.72
71621;BME280;59471;42.254;23.102;2023-04-08T04:33:03;96013.66;;;5.15;72.48
71621;BME280;59471;42.254;23.102;2023-04-08T04:35:29;96021.09;;;5.47;71.49
71621;BME280;59471;42.254;23.102;2023-04-08T04:37:54;96018.38;;;5.49;71.83
71621;BME280;59471;42.254;23.102;2023-04-08T04:40:21;96005.66;;;5.46;71.21
71621;BME280;59471;42.254;23.102;2023-04-08T04:42:46;96010.63;;;5.39;71.97
71621;BME280;59471;42.254;23.102;2023-04-08T04:45:12;96015.78;;;5.49;71.58
71621;BME280;59471;42.254;23.102;2023-04-08T04:47:37;96017.84;;;5.35;72.43
71621;BME280;59471;42.254;23.102;2023-04-08T04:50:03;96020.47;;;5.16;72.19
71621;BME280;59471;42.254;23.102;2023-04-08T04:52:30;96021.28;;;5.26;71.55
71621;BME280;59471;42.254;23.102;2023-04-08T04:54:58;96024.84;;;5.25;71.43
71621;BME280;59471;42.254;23.102;2023-04-08T04:57:24;96025.44;;;5.00;71.16
71621;BME280;59471;42.254;23.102;2023-04-08T04:59:49;96026.22;;;5.10;71.95
71621;BME280;59471;42.254;23.102;2023-04-08T05:02:15;96022.13;;;5.17;71.45
71621;BME280;59471;42.254;23.102;2023-04-08T05:04:41;96021.63;;;5.51;69.87
71621;BME280;59471;42.254;23.102;2023-04-08T05:07:06;96024.19;;;5.61;69.69
71621;BME280;59471;42.254;23.102;2023-04-08T05:09:32;96021.25;;;5.46;70.50
71621;BME280;59471;42.254;23.102;2023-04-08T05:11:57;96034.19;;;5.65;69.80
71621;BME280;59471;42.254;23.102;2023-04-08T05:14:23;96027.72;;;5.69;70.39
71621;BME280;59471;42.254;23.102;2023-04-08T05:16:48;96029.34;;;5.70;69.21
71621;BME280;59471;42.254;23.102;2023-04-08T05:19:14;96028.13;;;5.74;68.98
71621;BME280;59471;42.254;23.102;2023-04-08T05:21:39;96021.69;;;5.78;69.22
71621;BME280;59471;42.254;23.102;2023-04-08T05:24:05;96027.34;;;6.01;68.43
71621;BME280;59471;42.254;23.102;2023-04-08T05:26:30;96025.56;;;6.02;69.04
71621;BME280;59471;42.254;23.102;2023-04-08T05:28:57;96020.94;;;6.23;68.36
71621;BME280;59471;42.254;23.102;2023-04-08T05:31:22;96031.22;;;6.43;67.01
71621;BME280;59471;42.254;23.102;2023-04-08T05:33:48;96033.34;;;6.02;67.83
71621;BME280;59471;42.254;23.102;2023-04-08T05:36:14;96026.47;;;6.11;67.69
71621;BME280;59471;42.254;23.102;2023-04-08T05:38:39;96034.25;;;5.93;68.62
71621;BME280;59471;42.254;23.102;2023-04-08T05:41:07;96031.03;;;5.99;67.95
71621;BME280;59471;42.254;23.102;2023-04-08T05:43:33;96028.44;;;5.99;67.65
71621;BME280;59471;42.254;23.102;2023-04-08T05:45:58;96028.38;;;6.18;66.14
71621;BME280;59471;42.254;23.102;2023-04-08T05:48:24;96030.91;;;6.46;66.12
71621;BME280;59471;42.254;23.102;2023-04-08T05:50:49;96024.97;;;6.36;65.54
71621;BME280;59471;42.254;23.102;2023-04-08T05:53:15;96026.59;;;6.37;65.26
71621;BME280;59471;42.254;23.102;2023-04-08T05:55:41;96022.19;;;6.19;66.17
71621;BME280;59471;42.254;23.102;2023-04-08T05:58:06;96031.41;;;6.59;64.77
71621;BME280;59471;42.254;23.102;2023-04-08T06:00:32;96021.00;;;6.59;64.52
71621;BME280;59471;42.254;23.102;2023-04-08T06:02:58;96023.97;;;6.46;64.30
71621;BME280;59471;42.254;23.102;2023-04-08T06:05:23;96023.50;;;6.51;64.62
71621;BME280;59471;42.254;23.102;2023-04-08T06:07:49;96020.41;;;6.65;63.91
71621;BME280;59471;42.254;23.102;2023-04-08T06:10:15;96020.16;;;6.59;63.80
71621;BME280;59471;42.254;23.102;2023-04-08T06:12:40;96023.22;;;6.54;64.41
71621;BME280;59471;42.254;23.102;2023-04-08T06:15:07;96020.00;;;6.60;63.99
71621;BME280;59471;42.254;23.102;2023-04-08T06:17:35;96022.22;;;7.09;63.53
71621;BME280;59471;42.254;23.102;2023-04-08T06:20:01;96024.69;;;7.10;62.48
71621;BME280;59471;42.254;23.102;2023-04-08T06:22:28;96025.69;;;7.35;61.92
71621;BME280;59471;42.254;23.102;2023-04-08T06:24:54;96029.09;;;7.36;62.56
71621;BME280;59471;42.254;23.102;2023-04-08T06:27:19;96032.69;;;7.35;62.95
71621;BME280;59471;42.254;23.102;2023-04-08T06:29:45;96032.06;;;7.67;61.21
71621;BME280;59471;42.254;23.102;2023-04-08T06:32:12;96026.72;;;7.77;60.29
71621;BME280;59471;42.254;23.102;2023-04-08T06:34:38;96027.28;;;7.62;59.46
71621;BME280;59471;42.254;23.102;2023-04-08T06:37:05;96025.72;;;7.70;60.27
71621;BME280;59471;42.254;23.102;2023-04-08T06:39:31;96018.63;;;7.88;60.50
71621;BME280;59471;42.254;23.102;2023-04-08T06:41:57;96018.53;;;7.98;59.02
71621;BME280;59471;42.254;23.102;2023-04-08T06:44:23;96018.34;;;7.99;60.13
71621;BME280;59471;42.254;23.102;2023-04-08T06:46:49;96020.16;;;8.07;58.85
71621;BME280;59471;42.254;23.102;2023-04-08T06:49:15;96027.81;;;8.00;58.24
71621;BME280;59471;42.254;23.102;2023-04-08T06:51:40;96027.72;;;7.76;58.85
71621;BME280;59471;42.254;23.102;2023-04-08T06:54:06;96028.13;;;7.97;59.64
71621;BME280;59471;42.254;23.102;2023-04-08T06:56:34;96025.94;;;8.19;59.05
71621;BME280;59471;42.254;23.102;2023-04-08T06:59:00;96026.59;;;8.29;59.30
71621;BME280;59471;42.254;23.102;2023-04-08T07:01:26;96026.09;;;8.68;58.18
71621;BME280;59471;42.254;23.102;2023-04-08T07:03:51;96024.44;;;8.67;57.61
71621;BME280;59471;42.254;23.102;2023-04-08T07:06:17;96029.31;;;8.53;57.65
71621;BME280;59471;42.254;23.102;2023-04-08T07:08:43;96027.91;;;8.67;58.18
71621;BME280;59471;42.254;23.102;2023-04-08T07:11:08;96031.00;;;8.87;58.51
71621;BME280;59471;42.254;23.102;2023-04-08T07:13:34;96036.59;;;9.09;57.66
71621;BME280;59471;42.254;23.102;2023-04-08T07:15:59;96028.91;;;8.99;55.16
71621;BME280;59471;42.254;23.102;2023-04-08T07:18:25;96036.56;;;9.00;54.30
71621;BME280;59471;42.254;23.102;2023-04-08T07:20:52;96028.41;;;8.95;56.80
71621;BME280;59471;42.254;23.102;2023-04-08T07:23:22;96032.97;;;8.85;57.38
71621;BME280;59471;42.254;23.102;2023-04-08T07:25:47;96037.19;;;8.78;57.09
71621;BME280;59471;42.254;23.102;2023-04-08T07:28:13;96037.53;;;8.91;56.37
71621;BME280;59471;42.254;23.102;2023-04-08T07:30:39;96039.63;;;8.79;56.22
71621;BME280;59471;42.254;23.102;2023-04-08T07:33:04;96044.75;;;9.05;56.41
71621;BME280;59471;42.254;23.102;2023-04-08T07:35:30;96051.28;;;9.34;56.30
71621;BME280;59471;42.254;23.102;2023-04-08T07:37:56;96050.13;;;9.53;55.09
71621;BME280;59471;42.254;23.102;2023-04-08T07:40:22;96040.44;;;9.70;54.44
71621;BME280;59471;42.254;23.102;2023-04-08T07:42:48;96048.66;;;9.34;54.90
71621;BME280;59471;42.254;23.102;2023-04-08T07:45:13;96047.66;;;9.51;54.85
71621;BME280;59471;42.254;23.102;2023-04-08T07:47:39;96051.88;;;9.69;54.21
71621;BME280;59471;42.254;23.102;2023-04-08T07:50:06;96046.13;;;9.82;52.12
71621;BME280;59471;42.254;23.102;2023-04-08T07:52:32;96046.34;;;9.56;52.22
71621;BME280;59471;42.254;23.102;2023-04-08T07:54:58;96054.53;;;9.28;53.89
71621;BME280;59471;42.254;23.102;2023-04-08T07:57:24;96055.81;;;9.48;53.62
71621;BME280;59471;42.254;23.102;2023-04-08T07:59:50;96055.81;;;9.65;52.86
71621;BME280;59471;42.254;23.102;2023-04-08T08:02:16;96052.94;;;9.99;51.46
71621;BME280;59471;42.254;23.102;2023-04-08T08:04:42;96051.88;;;10.33;53.19
71621;BME280;59471;42.254;23.102;2023-04-08T08:07:08;96058.25;;;10.30;50.93
71621;BME280;59471;42.254;23.102;2023-04-08T08:09:33;96051.38;;;10.37;51.72
71621;BME280;59471;42.254;23.102;2023-04-08T08:11:59;96042.09;;;10.58;49.83
71621;BME280;59471;42.254;23.102;2023-04-08T08:14:25;96052.81;;;10.71;47.63
71621;BME280;59471;42.254;23.102;2023-04-08T08:16:51;96048.00;;;10.52;47.58
71621;BME280;59471;42.254;23.102;2023-04-08T08:19:19;96039.00;;;10.85;47.61
71621;BME280;59471;42.254;23.102;2023-04-08T08:21:45;96037.81;;;11.11;48.37
71621;BME280;59471;42.254;23.102;2023-04-08T08:24:10;96055.88;;;10.83;47.78
71621;BME280;59471;42.254;23.102;2023-04-08T08:26:36;96033.06;;;10.29;50.92
71621;BME280;59471;42.254;23.102;2023-04-08T08:29:02;96042.31;;;10.79;48.05
71621;BME280;59471;42.254;23.102;2023-04-08T08:31:28;96045.63;;;10.73;47.75
71621;BME280;59471;42.254;23.102;2023-04-08T08:33:53;96042.28;;;11.25;49.10
71621;BME280;59471;42.254;23.102;2023-04-08T08:36:19;96035.84;;;11.13;48.26
71621;BME280;59471;42.254;23.102;2023-04-08T08:38:45;96039.59;;;11.33;47.28
71621;BME280;59471;42.254;23.102;2023-04-08T08:41:10;96042.38;;;11.55;47.26
71621;BME280;59471;42.254;23.102;2023-04-08T08:43:37;96035.22;;;11.49;45.35
71621;BME280;59471;42.254;23.102;2023-04-08T08:46:03;96033.28;;;11.43;44.91
71621;BME280;59471;42.254;23.102;2023-04-08T08:48:28;96026.44;;;11.42;45.43
71621;BME280;59471;42.254;23.102;2023-04-08T08:50:55;96028.53;;;11.61;44.75
71621;BME280;59471;42.254;23.102;2023-04-08T08:53:28;96026.41;;;11.79;46.02
71621;BME280;59471;42.254;23.102;2023-04-08T08:55:55;96027.19;;;11.27;46.44
71621;BME280;59471;42.254;23.102;2023-04-08T08:58:20;96032.13;;;11.07;47.09
71621;BME280;59471;42.254;23.102;2023-04-08T09:00:46;96025.72;;;11.48;46.40
71621;BME280;59471;42.254;23.102;2023-04-08T09:03:18;96022.03;;;11.57;46.39
71621;BME280;59471;42.254;23.102;2023-04-08T09:05:56;96022.22;;;11.70;46.14
71621;BME280;59471;42.254;23.102;2023-04-08T09:11:18;96029.63;;;11.81;47.41
71621;BME280;59471;42.254;23.102;2023-04-08T09:13:46;96018.59;;;11.71;47.88
71621;BME280;59471;42.254;23.102;2023-04-08T09:16:16;96019.72;;;11.92;47.60
71621;BME280;59471;42.254;23.102;2023-04-08T09:18:43;96017.09;;;12.21;46.51
71621;BME280;59471;42.254;23.102;2023-04-08T09:21:14;96022.06;;;11.87;46.13
71621;BME280;59471;42.254;23.102;2023-04-08T09:23:49;96013.34;;;11.71;47.77
71621;BME280;59471;42.254;23.102;2023-04-08T09:26:20;96012.44;;;11.64;45.58
71621;BME280;59471;42.254;23.102;2023-04-08T09:31:38;96008.19;;;11.48;49.06
71621;BME280;59471;42.254;23.102;2023-04-08T09:34:11;96007.94;;;11.88;46.91
71621;BME280;59471;42.254;23.102;2023-04-08T09:36:39;95998.69;;;12.21;45.03
71621;BME280;59471;42.254;23.102;2023-04-08T09:39:05;95996.00;;;12.00;46.49
71621;BME280;59471;42.254;23.102;2023-04-08T09:41:36;96001.34;;;12.06;46.28
71621;BME280;59471;42.254;23.102;2023-04-08T09:44:07;95992.72;;;12.27;46.61
71621;BME280;59471;42.254;23.102;2023-04-08T09:49:37;95992.16;;;12.90;44.47
71621;BME280;59471;42.254;23.102;2023-04-08T09:52:10;95987.88;;;13.10;43.86
71621;BME280;59471;42.254;23.102;2023-04-08T09:54:54;95980.53;;;12.99;44.33
71621;BME280;59471;42.254;23.102;2023-04-08T10:00:17;95973.31;;;13.08;43.56
71621;BME280;59471;42.254;23.102;2023-04-08T10:03:24;95973.97;;;13.38;42.93
71621;BME280;59471;42.254;23.102;2023-04-08T10:05:53;95970.47;;;14.35;41.52
71621;BME280;59471;42.254;23.102;2023-04-08T10:08:22;95970.38;;;14.56;42.08
71621;BME280;59471;42.254;23.102;2023-04-08T10:10:49;95965.31;;;14.75;40.82
71621;BME280;59471;42.254;23.102;2023-04-08T10:13:15;95953.31;;;14.52;40.29
71621;BME280;59471;42.254;23.102;2023-04-08T10:15:40;95957.09;;;14.50;40.12
71621;BME280;59471;42.254;23.102;2023-04-08T10:28:23;95956.69;;;13.91;43.10
71621;BME280;59471;42.254;23.102;2023-04-08T10:30:54;95946.09;;;14.94;40.77
71621;BME280;59471;42.254;23.102;2023-04-08T10:33:31;95948.25;;;14.57;38.30
71621;BME280;59471;42.254;23.102;2023-04-08T10:36:08;95963.69;;;14.74;39.58
71621;BME280;59471;42.254;23.102;2023-04-08T10:38:38;95953.19;;;14.26;39.54
71621;BME280;59471;42.254;23.102;2023-04-08T10:41:06;95950.50;;;14.60;39.29
71621;BME280;59471;42.254;23.102;2023-04-08T10:43:35;95962.31;;;15.04;40.51
71621;BME280;59471;42.254;23.102;2023-04-08T10:46:02;95952.75;;;14.90;39.68
71621;BME280;59471;42.254;23.102;2023-04-08T10:48:28;95949.41;;;14.48;38.77
71621;BME280;59471;42.254;23.102;2023-04-08T10:50:56;95953.41;;;14.31;39.52
71621;BME280;59471;42.254;23.102;2023-04-08T10:53:31;95954.09;;;13.98;39.23
71621;BME280;59471;42.254;23.102;2023-04-08T10:56:08;95942.94;;;14.44;38.81
71621;BME280;59471;42.254;23.102;2023-04-08T10:58:49;95937.25;;;14.47;38.21
71621;BME280;59471;42.254;23.102;2023-04-08T11:01:15;95938.22;;;14.33;36.91
71621;BME280;59471;42.254;23.102;2023-04-08T11:03:41;95934.50;;;14.89;38.56
71621;BME280;59471;42.254;23.102;2023-04-08T11:06:07;95927.97;;;15.44;36.29
71621;BME280;59471;42.254;23.102;2023-04-08T11:08:34;95915.44;;;14.67;36.90
71621;BME280;59471;42.254;23.102;2023-04-08T11:11:01;95925.56;;;14.70;35.58
71621;BME280;59471;42.254;23.102;2023-04-08T11:13:28;95916.25;;;14.74;38.97
71621;BME280;59471;42.254;23.102;2023-04-08T11:15:55;95914.59;;;15.46;38.22
71621;BME280;59471;42.254;23.102;2023-04-08T11:18:21;95912.81;;;16.11;37.34
71621;BME280;59471;42.254;23.102;2023-04-08T11:20:49;95923.31;;;16.63;36.38
71621;BME280;59471;42.254;23.102;2023-04-08T11:23:16;95909.25;;;16.31;35.10
71621;BME280;59471;42.254;23.102;2023-04-08T11:25:43;95918.69;;;14.95;34.81
71621;BME280;59471;42.254;23.102;2023-04-08T11:28:10;95906.28;;;15.42;37.33
71621;BME280;59471;42.254;23.102;2023-04-08T11:30:39;95902.66;;;14.64;36.52
71621;BME280;59471;42.254;23.102;2023-04-08T11:33:06;95896.28;;;14.31;36.38
71621;BME280;59471;42.254;23.102;2023-04-08T11:35:32;95901.97;;;14.35;36.60
71621;BME280;59471;42.254;23.102;2023-04-08T11:37:58;95890.22;;;14.44;37.47
71621;BME280;59471;42.254;23.102;2023-04-08T11:40:24;95898.81;;;14.99;37.70
71621;BME280;59471;42.254;23.102;2023-04-08T11:42:51;95892.63;;;15.72;37.60
71621;BME280;59471;42.254;23.102;2023-04-08T11:45:20;95898.25;;;15.95;34.70
71621;BME280;59471;42.254;23.102;2023-04-08T11:47:46;95899.03;;;14.98;34.95
71621;BME280;59471;42.254;23.102;2023-04-08T11:50:21;95893.72;;;15.18;36.43
71621;BME280;59471;42.254;23.102;2023-04-08T11:52:49;95892.72;;;15.32;37.25
71621;BME280;59471;42.254;23.102;2023-04-08T11:55:26;95892.47;;;15.67;36.66
71621;BME280;59471;42.254;23.102;2023-04-08T11:58:01;95884.94;;;15.44;37.33
71621;BME280;59471;42.254;23.102;2023-04-08T12:00:28;95893.84;;;15.56;37.92
71621;BME280;59471;42.254;23.102;2023-04-08T12:02:55;95882.69;;;15.74;37.14
71621;BME280;59471;42.254;23.102;2023-04-08T12:05:21;95889.06;;;16.05;36.74
71621;BME280;59471;42.254;23.102;2023-04-08T12:07:46;95880.91;;;15.28;37.10
71621;BME280;59471;42.254;23.102;2023-04-08T12:10:12;95884.00;;;14.92;38.68
71621;BME280;59471;42.254;23.102;2023-04-08T12:12:38;95876.84;;;14.39;37.61
71621;BME280;59471;42.254;23.102;2023-04-08T12:15:05;95880.97;;;14.95;37.22
71621;BME280;59471;42.254;23.102;2023-04-08T12:17:35;95876.06;;;15.25;36.24
71621;BME280;59471;42.254;23.102;2023-04-08T12:20:03;95882.28;;;15.50;36.86
71621;BME280;59471;42.254;23.102;2023-04-08T12:22:30;95878.16;;;14.02;38.32
71621;BME280;59471;42.254;23.102;2023-04-08T12:24:56;95873.25;;;14.67;38.54
71621;BME280;59471;42.254;23.102;2023-04-08T12:27:21;95868.38;;;14.77;37.94
71621;BME280;59471;42.254;23.102;2023-04-08T12:29:47;95867.56;;;13.82;38.83
71621;BME280;59471;42.254;23.102;2023-04-08T12:32:14;95866.56;;;13.89;41.08
71621;BME280;59471;42.254;23.102;2023-04-08T12:34:40;95854.47;;;14.15;38.58
71621;BME280;59471;42.254;23.102;2023-04-08T12:37:05;95857.84;;;14.90;39.20
71621;BME280;59471;42.254;23.102;2023-04-08T12:39:31;95862.22;;;14.36;38.16
71621;BME280;59471;42.254;23.102;2023-04-08T12:41:56;95848.38;;;14.01;38.25
71621;BME280;59471;42.254;23.102;2023-04-08T12:44:22;95849.00;;;13.55;39.14
71621;BME280;59471;42.254;23.102;2023-04-08T12:46:47;95842.72;;;14.04;40.15
71621;BME280;59471;42.254;23.102;2023-04-08T12:49:13;95847.19;;;14.10;36.99
71621;BME280;59471;42.254;23.102;2023-04-08T12:51:39;95846.06;;;14.59;37.25
71621;BME280;59471;42.254;23.102;2023-04-08T12:54:04;95839.50;;;14.16;38.49
71621;BME280;59471;42.254;23.102;2023-04-08T12:56:30;95845.47;;;14.64;38.39
71621;BME280;59471;42.254;23.102;2023-04-08T12:58:57;95837.97;;;14.61;38.23
71621;BME280;59471;42.254;23.102;2023-04-08T13:01:23;95839.94;;;14.26;39.61
71621;BME280;59471;42.254;23.102;2023-04-08T13:03:49;95830.81;;;13.54;41.12
71621;BME280;59471;42.254;23.102;2023-04-08T13:06:14;95838.41;;;13.07;41.89
71621;BME280;59471;42.254;23.102;2023-04-08T13:08:40;95836.91;;;13.67;42.96
71621;BME280;59471;42.254;23.102;2023-04-08T13:11:07;95830.56;;;13.97;40.72
71621;BME280;59471;42.254;23.102;2023-04-08T13:13:33;95830.47;;;14.58;40.92
71621;BME280;59471;42.254;23.102;2023-04-08T13:15:59;95824.91;;;15.33;39.36
71621;BME280;59471;42.254;23.102;2023-04-08T13:18:25;95816.09;;;16.04;37.70